sensor_id;sensor_type;location;lat;lon;timestamp;P1;durP1;ratioP1;P2;durP2;ratioP2
68275;SDS011;55106;51.438;-0.098;2022-08-04T00:06:37;7.20;;;2.63;;
68275;SDS011;55106;51.438;-0.098;2022-08-04T00:09:12;8.45;;;2.90;;
68275;SDS011;55106;51.438;-0.098;2022-08-04T00:11:43;7.63;;;2.60;;
68275;SDS011;55106;51.438;-0.098;2022-08-04T00:14:12;5.57;;;2.63;;
68275;SDS011;55106;51.438;-0.098;2022-08-04T00:16:40;7.90;;;2.72;;
68275;SDS011;55106;51.438;-0.098;2022-08-04T00:19:11;8.40;;;2.73;;
68275;SDS011;55106;51.438;-0.098;2022-08-04T00:21:41;7.75;;;2.75;;
68275;SDS011;55106;51.438;-0.098;2022-08-04T00:24:12;7.78;;;2.88;;
68275;SDS011;55106;51.438;-0.098;2022-08-04T00:26:40;6.20;;;2.30;;
68275;SDS011;55106;51.438;-0.098;2022-08-04T00:29:05;6.23;;;2.30;;
68275;SDS011;55106;51.438;-0.098;2022-08-04T00:31:31;7.68;;;2.63;;
68275;SDS011;55106;51.438;-0.098;2022-08-04T00:33:57;6.13;;;2.67;;
68275;SDS011;55106;51.438;-0.098;2022-08-04T00:36:23;6.10;;;2.50;;
68275;SDS011;55106;51.438;-0.098;2022-08-04T00:38:51;8.05;;;2.95;;
68275;SDS011;55106;51.438;-0.098;2022-08-04T00:44:16;8.07;;;2.80;;
68275;SDS011;55106;51.438;-0.098;2022-08-04T00:47:14;7.32;;;2.75;;
68275;SDS011;55106;51.438;-0.098;2022-08-04T00:52:29;6.63;;;2.50;;
68275;SDS011;55106;51.438;-0.098;2022-08-04T01:03:29;5.95;;;2.10;;
68275;SDS011;55106;51.438;-0.098;2022-08-04T01:06:11;6.77;;;2.40;;
68275;SDS011;55106;51.438;-0.098;2022-08-04T01:09:24;8.35;;;3.03;;
68275;SDS011;55106;51.438;-0.098;2022-08-04T01:14:32;7.20;;;2.35;;
68275;SDS011;55106;51.438;-0.098;2022-08-04T01:17:05;6.10;;;2.40;;
68275;SDS011;55106;51.438;-0.098;2022-08-04T01:22:20;7.80;;;2.60;;
68275;SDS011;55106;51.438;-0.098;2022-08-04T01:30:48;7.80;;;2.42;;
68275;SDS011;55106;51.438;-0.098;2022-08-04T01:33:16;6.53;;;2.10;;
68275;SDS011;55106;51.438;-0.098;2022-08-04T01:35:54;5.93;;;2.13;;
68275;SDS011;55106;51.438;-0.098;2022-08-04T01:38:29;10.18;;;2.67;;
68275;SDS011;55106;51.438;-0.098;2022-08-04T01:41:07;5.75;;;2.40;;
68275;SDS011;55106;51.438;-0.098;2022-08-04T01:43:35;8.18;;;2.60;;
68275;SDS011;55106;51.438;-0.098;2022-08-04T01:46:05;7.93;;;2.77;;
68275;SDS011;55106;51.438;-0.098;2022-08-04T01:48:31;6.97;;;2.70;;
68275;SDS011;55106;51.438;-0.098;2022-08-04T01:50:59;7.00;;;2.92;;
68275;SDS011;55106;51.438;-0.098;2022-08-04T01:53:29;7.53;;;2.50;;
68275;SDS011;55106;51.438;-0.098;2022-08-04T01:55:56;8.53;;;2.73;;
68275;SDS011;55106;51.438;-0.098;2022-08-04T01:58:23;5.68;;;2.67;;
68275;SDS011;55106;51.438;-0.098;2022-08-04T02:00:59;6.68;;;2.53;;
68275;SDS011;55106;51.438;-0.098;2022-08-04T02:03:29;7.72;;;3.38;;
68275;SDS011;55106;51.438;-0.098;2022-08-04T02:06:03;7.67;;;2.53;;
68275;SDS011;55106;51.438;-0.098;2022-08-04T02:08:53;8.32;;;2.80;;
68275;SDS011;55106;51.438;-0.098;2022-08-04T02:11:33;8.57;;;2.10;;
68275;SDS011;55106;51.438;-0.098;2022-08-04T02:14:01;8.30;;;2.80;;
68275;SDS011;55106;51.438;-0.098;2022-08-04T02:16:58;6.45;;;2.63;;
68275;SDS011;55106;51.438;-0.098;2022-08-04T02:19:28;7.10;;;2.40;;
68275;SDS011;55106;51.438;-0.098;2022-08-04T02:22:00;7.97;;;2.47;;
68275;SDS011;55106;51.438;-0.098;2022-08-04T02:24:31;8.18;;;2.03;;
68275;SDS011;55106;51.438;-0.098;2022-08-04T02:26:56;7.10;;;2.55;;
68275;SDS011;55106;51.438;-0.098;2022-08-04T02:32:24;6.97;;;2.23;;
68275;SDS011;55106;51.438;-0.098;2022-08-04T02:37:35;6.70;;;2.30;;
68275;SDS011;55106;51.438;-0.098;2022-08-04T02:40:03;7.40;;;2.40;;
68275;SDS011;55106;51.438;-0.098;2022-08-04T02:42:31;8.65;;;3.15;;
68275;SDS011;55106;51.438;-0.098;2022-08-04T02:44:57;9.83;;;2.53;;
68275;SDS011;55106;51.438;-0.098;2022-08-04T02:47:24;6.88;;;2.70;;
68275;SDS011;55106;51.438;-0.098;2022-08-04T02:49:52;10.55;;;2.83;;
68275;SDS011;55106;51.438;-0.098;2022-08-04T02:52:20;7.05;;;2.63;;
68275;SDS011;55106;51.438;-0.098;2022-08-04T02:54:50;5.55;;;2.15;;
68275;SDS011;55106;51.438;-0.098;2022-08-04T02:57:18;7.20;;;2.50;;
68275;SDS011;55106;51.438;-0.098;2022-08-04T03:02:30;7.97;;;2.22;;
68275;SDS011;55106;51.438;-0.098;2022-08-04T03:05:12;6.07;;;1.92;;
68275;SDS011;55106;51.438;-0.098;2022-08-04T03:07:50;6.72;;;2.30;;
68275;SDS011;55106;51.438;-0.098;2022-08-04T03:24:24;7.63;;;2.60;;
68275;SDS011;55106;51.438;-0.098;2022-08-04T03:30:13;6.38;;;2.40;;
68275;SDS011;55106;51.438;-0.098;2022-08-04T03:35:42;8.35;;;2.80;;
68275;SDS011;55106;51.438;-0.098;2022-08-04T03:51:48;7.47;;;2.60;;
68275;SDS011;55106;51.438;-0.098;2022-08-04T04:06:58;7.73;;;2.50;;
68275;SDS011;55106;51.438;-0.098;2022-08-04T04:09:45;8.98;;;2.97;;
68275;SDS011;55106;51.438;-0.098;2022-08-04T04:12:51;8.15;;;2.75;;
68275;SDS011;55106;51.438;-0.098;2022-08-04T04:15:31;7.68;;;3.33;;
68275;SDS011;55106;51.438;-0.098;2022-08-04T04:26:56;7.65;;;3.08;;
68275;SDS011;55106;51.438;-0.098;2022-08-04T04:29:50;6.72;;;2.78;;
68275;SDS011;55106;51.438;-0.098;2022-08-04T04:46:17;9.82;;;3.20;;
68275;SDS011;55106;51.438;-0.098;2022-08-04T04:48:53;7.57;;;3.70;;
68275;SDS011;55106;51.438;-0.098;2022-08-04T04:54:24;9.30;;;3.65;;
68275;SDS011;55106;51.438;-0.098;2022-08-04T04:57:14;7.80;;;3.40;;
68275;SDS011;55106;51.438;-0.098;2022-08-04T05:00:04;10.65;;;3.75;;
68275;SDS011;55106;51.438;-0.098;2022-08-04T05:14:28;9.05;;;3.22;;
68275;SDS011;55106;51.438;-0.098;2022-08-04T05:17:05;9.10;;;2.83;;
68275;SDS011;55106;51.438;-0.098;2022-08-04T05:22:10;11.43;;;2.90;;
68275;SDS011;55106;51.438;-0.098;2022-08-04T05:24:43;11.02;;;3.20;;
68275;SDS011;55106;51.438;-0.098;2022-08-04T05:27:16;9.77;;;2.95;;
68275;SDS011;55106;51.438;-0.098;2022-08-04T05:30:00;7.60;;;3.33;;
68275;SDS011;55106;51.438;-0.098;2022-08-04T05:32:34;7.95;;;2.85;;
68275;SDS011;55106;51.438;-0.098;2022-08-04T05:35:08;9.48;;;2.78;;
68275;SDS011;55106;51.438;-0.098;2022-08-04T05:37:37;8.43;;;2.53;;
68275;SDS011;55106;51.438;-0.098;2022-08-04T05:40:06;8.57;;;2.95;;
68275;SDS011;55106;51.438;-0.098;2022-08-04T05:42:34;8.77;;;2.80;;
68275;SDS011;55106;51.438;-0.098;2022-08-04T05:45:03;8.63;;;2.90;;
68275;SDS011;55106;51.438;-0.098;2022-08-04T05:47:31;7.70;;;2.53;;
68275;SDS011;55106;51.438;-0.098;2022-08-04T05:49:59;9.52;;;2.63;;
68275;SDS011;55106;51.438;-0.098;2022-08-04T05:52:26;12.98;;;2.90;;
68275;SDS011;55106;51.438;-0.098;2022-08-04T05:54:52;11.57;;;3.07;;
68275;SDS011;55106;51.438;-0.098;2022-08-04T05:57:18;13.85;;;3.42;;
68275;SDS011;55106;51.438;-0.098;2022-08-04T05:59:45;8.77;;;2.28;;
68275;SDS011;55106;51.438;-0.098;2022-08-04T06:02:13;6.72;;;2.38;;
68275;SDS011;55106;51.438;-0.098;2022-08-04T06:04:42;11.68;;;2.65;;
68275;SDS011;55106;51.438;-0.098;2022-08-04T06:07:12;9.00;;;2.27;;
68275;SDS011;55106;51.438;-0.098;2022-08-04T06:09:39;11.35;;;2.83;;
68275;SDS011;55106;51.438;-0.098;2022-08-04T06:12:06;8.43;;;2.42;;
68275;SDS011;55106;51.438;-0.098;2022-08-04T06:14:37;8.75;;;2.60;;
68275;SDS011;55106;51.438;-0.098;2022-08-04T06:17:06;10.07;;;2.30;;
68275;SDS011;55106;51.438;-0.098;2022-08-04T06:19:34;8.63;;;2.70;;
68275;SDS011;55106;51.438;-0.098;2022-08-04T06:22:02;9.95;;;2.47;;
68275;SDS011;55106;51.438;-0.098;2022-08-04T06:24:29;9.18;;;2.50;;
68275;SDS011;55106;51.438;-0.098;2022-08-04T06:26:56;8.60;;;2.25;;
68275;SDS011;55106;51.438;-0.098;2022-08-04T06:29:22;7.50;;;2.30;;
68275;SDS011;55106;51.438;-0.098;2022-08-04T06:31:56;10.48;;;2.17;;
68275;SDS011;55106;51.438;-0.098;2022-08-04T06:34:24;9.25;;;2.55;;
68275;SDS011;55106;51.438;-0.098;2022-08-04T06:36:51;7.22;;;2.58;;
68275;SDS011;55106;51.438;-0.098;2022-08-04T06:39:18;7.80;;;2.25;;
68275;SDS011;55106;51.438;-0.098;2022-08-04T06:41:47;7.27;;;2.17;;
68275;SDS011;55106;51.438;-0.098;2022-08-04T06:44:15;7.70;;;2.10;;
68275;SDS011;55106;51.438;-0.098;2022-08-04T06:46:42;7.63;;;2.33;;
68275;SDS011;55106;51.438;-0.098;2022-08-04T06:49:08;8.00;;;2.30;;
68275;SDS011;55106;51.438;-0.098;2022-08-04T06:51:35;6.83;;;2.40;;
68275;SDS011;55106;51.438;-0.098;2022-08-04T06:54:03;7.22;;;2.25;;
68275;SDS011;55106;51.438;-0.098;2022-08-04T06:56:29;6.22;;;2.30;;
68275;SDS011;55106;51.438;-0.098;2022-08-04T06:58:58;7.65;;;2.67;;
68275;SDS011;55106;51.438;-0.098;2022-08-04T07:01:24;7.63;;;2.00;;
68275;SDS011;55106;51.438;-0.098;2022-08-04T07:03:51;6.10;;;2.60;;
68275;SDS011;55106;51.438;-0.098;2022-08-04T07:06:17;9.75;;;2.75;;
68275;SDS011;55106;51.438;-0.098;2022-08-04T07:08:45;8.40;;;2.42;;
68275;SDS011;55106;51.438;-0.098;2022-08-04T07:11:12;7.23;;;2.03;;
68275;SDS011;55106;51.438;-0.098;2022-08-04T07:13:38;7.95;;;2.30;;
68275;SDS011;55106;51.438;-0.098;2022-08-04T07:16:04;7.97;;;2.53;;
68275;SDS011;55106;51.438;-0.098;2022-08-04T07:18:31;8.52;;;2.40;;
68275;SDS011;55106;51.438;-0.098;2022-08-04T07:20:56;10.33;;;2.13;;
68275;SDS011;55106;51.438;-0.098;2022-08-04T07:23:23;9.67;;;2.80;;
68275;SDS011;55106;51.438;-0.098;2022-08-04T07:25:50;8.20;;;2.47;;
68275;SDS011;55106;51.438;-0.098;2022-08-04T07:28:17;8.82;;;2.65;;
68275;SDS011;55106;51.438;-0.098;2022-08-04T07:30:44;8.18;;;2.20;;
68275;SDS011;55106;51.438;-0.098;2022-08-04T07:33:11;5.97;;;1.80;;
68275;SDS011;55106;51.438;-0.098;2022-08-04T07:35:37;7.05;;;2.28;;
68275;SDS011;55106;51.438;-0.098;2022-08-04T07:38:03;8.47;;;2.33;;
68275;SDS011;55106;51.438;-0.098;2022-08-04T07:40:29;8.57;;;2.38;;
68275;SDS011;55106;51.438;-0.098;2022-08-04T07:42:56;7.00;;;2.00;;
68275;SDS011;55106;51.438;-0.098;2022-08-04T07:45:21;7.13;;;2.00;;
68275;SDS011;55106;51.438;-0.098;2022-08-04T07:47:49;7.25;;;2.58;;
68275;SDS011;55106;51.438;-0.098;2022-08-04T07:50:15;7.63;;;2.20;;
68275;SDS011;55106;51.438;-0.098;2022-08-04T07:52:41;6.57;;;1.90;;
68275;SDS011;55106;51.438;-0.098;2022-08-04T07:55:09;6.40;;;1.77;;
68275;SDS011;55106;51.438;-0.098;2022-08-04T07:57:35;8.57;;;2.22;;
68275;SDS011;55106;51.438;-0.098;2022-08-04T08:00:01;7.53;;;1.77;;
68275;SDS011;55106;51.438;-0.098;2022-08-04T08:02:28;9.02;;;2.00;;
68275;SDS011;55106;51.438;-0.098;2022-08-04T08:04:54;7.78;;;2.28;;
68275;SDS011;55106;51.438;-0.098;2022-08-04T08:07:20;7.23;;;2.20;;
68275;SDS011;55106;51.438;-0.098;2022-08-04T08:09:45;7.10;;;2.67;;
68275;SDS011;55106;51.438;-0.098;2022-08-04T08:12:11;6.50;;;2.40;;
68275;SDS011;55106;51.438;-0.098;2022-08-04T08:14:37;7.65;;;2.22;;
68275;SDS011;55106;51.438;-0.098;2022-08-04T08:17:04;9.32;;;2.20;;
68275;SDS011;55106;51.438;-0.098;2022-08-04T08:19:30;10.00;;;2.20;;
68275;SDS011;55106;51.438;-0.098;2022-08-04T08:21:57;9.32;;;2.70;;
68275;SDS011;55106;51.438;-0.098;2022-08-04T08:24:23;10.32;;;2.13;;
68275;SDS011;55106;51.438;-0.098;2022-08-04T08:26:48;7.67;;;2.60;;
68275;SDS011;55106;51.438;-0.098;2022-08-04T08:29:14;7.77;;;2.23;;
68275;SDS011;55106;51.438;-0.098;2022-08-04T08:31:40;8.00;;;2.03;;
68275;SDS011;55106;51.438;-0.098;2022-08-04T08:34:05;7.28;;;1.85;;
68275;SDS011;55106;51.438;-0.098;2022-08-04T08:36:38;7.43;;;2.00;;
68275;SDS011;55106;51.438;-0.098;2022-08-04T08:39:11;9.37;;;2.10;;
68275;SDS011;55106;51.438;-0.098;2022-08-04T09:11:36;6.28;;;2.00;;
68275;SDS011;55106;51.438;-0.098;2022-08-04T09:16:56;6.65;;;1.73;;
68275;SDS011;55106;51.438;-0.098;2022-08-04T09:19:35;7.33;;;1.80;;
68275;SDS011;55106;51.438;-0.098;2022-08-04T09:22:19;6.57;;;1.80;;
68275;SDS011;55106;51.438;-0.098;2022-08-04T09:30:18;8.15;;;2.75;;
68275;SDS011;55106;51.438;-0.098;2022-08-04T09:38:00;8.97;;;1.97;;
68275;SDS011;55106;51.438;-0.098;2022-08-04T09:40:54;8.93;;;1.85;;
68275;SDS011;55106;51.438;-0.098;2022-08-04T09:43:53;7.80;;;2.05;;
68275;SDS011;55106;51.438;-0.098;2022-08-04T09:46:46;5.93;;;2.13;;
68275;SDS011;55106;51.438;-0.098;2022-08-04T09:49:39;6.68;;;2.08;;
68275;SDS011;55106;51.438;-0.098;2022-08-04T10:01:13;8.32;;;1.90;;
68275;SDS011;55106;51.438;-0.098;2022-08-04T10:03:54;10.02;;;2.35;;
68275;SDS011;55106;51.438;-0.098;2022-08-04T10:14:51;6.10;;;1.77;;
68275;SDS011;55106;51.438;-0.098;2022-08-04T10:17:39;5.78;;;1.98;;
68275;SDS011;55106;51.438;-0.098;2022-08-04T10:20:18;7.87;;;2.07;;
68275;SDS011;55106;51.438;-0.098;2022-08-04T10:23:00;9.10;;;2.38;;
68275;SDS011;55106;51.438;-0.098;2022-08-04T10:28:23;7.50;;;2.00;;
68275;SDS011;55106;51.438;-0.098;2022-08-04T10:30:52;6.80;;;2.08;;
68275;SDS011;55106;51.438;-0.098;2022-08-04T10:33:23;6.73;;;2.17;;
68275;SDS011;55106;51.438;-0.098;2022-08-04T10:35:54;9.52;;;2.10;;
68275;SDS011;55106;51.438;-0.098;2022-08-04T10:41:12;5.38;;;2.17;;
68275;SDS011;55106;51.438;-0.098;2022-08-04T10:46:53;6.20;;;2.13;;
68275;SDS011;55106;51.438;-0.098;2022-08-04T10:49:23;4.97;;;1.42;;
68275;SDS011;55106;51.438;-0.098;2022-08-04T10:52:00;7.35;;;1.98;;
68275;SDS011;55106;51.438;-0.098;2022-08-04T11:00:22;6.83;;;1.73;;
68275;SDS011;55106;51.438;-0.098;2022-08-04T11:02:57;6.95;;;1.90;;
68275;SDS011;55106;51.438;-0.098;2022-08-04T11:05:44;6.03;;;1.35;;
68275;SDS011;55106;51.438;-0.098;2022-08-04T11:13:19;5.63;;;1.43;;
68275;SDS011;55106;51.438;-0.098;2022-08-04T11:15:51;5.53;;;1.90;;
68275;SDS011;55106;51.438;-0.098;2022-08-04T11:18:23;4.97;;;1.77;;
68275;SDS011;55106;51.438;-0.098;2022-08-04T11:20:55;4.93;;;1.58;;
68275;SDS011;55106;51.438;-0.098;2022-08-04T11:23:32;6.10;;;1.45;;
68275;SDS011;55106;51.438;-0.098;2022-08-04T11:26:08;4.97;;;1.60;;
68275;SDS011;55106;51.438;-0.098;2022-08-04T11:28:55;7.97;;;1.67;;
68275;SDS011;55106;51.438;-0.098;2022-08-04T11:31:27;5.82;;;1.90;;
68275;SDS011;55106;51.438;-0.098;2022-08-04T11:36:48;4.70;;;2.10;;
68275;SDS011;55106;51.438;-0.098;2022-08-04T11:39:41;7.03;;;2.00;;
68275;SDS011;55106;51.438;-0.098;2022-08-04T11:42:20;4.13;;;1.60;;
68275;SDS011;55106;51.438;-0.098;2022-08-04T11:44:50;5.05;;;1.55;;
68275;SDS011;55106;51.438;-0.098;2022-08-04T11:52:37;8.53;;;2.20;;
68275;SDS011;55106;51.438;-0.098;2022-08-04T11:55:06;6.03;;;1.50;;
68275;SDS011;55106;51.438;-0.098;2022-08-04T11:57:35;5.15;;;1.65;;
68275;SDS011;55106;51.438;-0.098;2022-08-04T12:00:05;6.75;;;1.55;;
68275;SDS011;55106;51.438;-0.098;2022-08-04T12:02:57;5.07;;;1.58;;
68275;SDS011;55106;51.438;-0.098;2022-08-04T12:05:35;5.17;;;1.73;;
68275;SDS011;55106;51.438;-0.098;2022-08-04T12:11:27;6.20;;;1.65;;
68275;SDS011;55106;51.438;-0.098;2022-08-04T12:16:58;6.30;;;1.75;;
68275;SDS011;55106;51.438;-0.098;2022-08-04T12:22:23;5.03;;;1.52;;
68275;SDS011;55106;51.438;-0.098;2022-08-04T12:25:09;5.32;;;1.60;;
68275;SDS011;55106;51.438;-0.098;2022-08-04T12:27:45;4.80;;;1.30;;
68275;SDS011;55106;51.438;-0.098;2022-08-04T12:30:15;5.43;;;1.40;;
68275;SDS011;55106;51.438;-0.098;2022-08-04T12:35:30;4.72;;;1.45;;
68275;SDS011;55106;51.438;-0.098;2022-08-04T12:38:04;6.05;;;1.48;;
68275;SDS011;55106;51.438;-0.098;2022-08-04T12:40:48;5.00;;;1.77;;
68275;SDS011;55106;51.438;-0.098;2022-08-04T12:46:03;6.20;;;1.73;;
68275;SDS011;55106;51.438;-0.098;2022-08-04T12:48:31;4.90;;;1.45;;
68275;SDS011;55106;51.438;-0.098;2022-08-04T12:50:59;4.78;;;1.40;;
68275;SDS011;55106;51.438;-0.098;2022-08-04T12:53:34;6.83;;;1.57;;
68275;SDS011;55106;51.438;-0.098;2022-08-04T12:56:04;5.68;;;1.40;;
68275;SDS011;55106;51.438;-0.098;2022-08-04T12:58:43;5.07;;;1.35;;
68275;SDS011;55106;51.438;-0.098;2022-08-04T13:01:11;4.88;;;1.40;;
68275;SDS011;55106;51.438;-0.098;2022-08-04T13:03:48;5.90;;;1.40;;
68275;SDS011;55106;51.438;-0.098;2022-08-04T13:06:17;5.88;;;1.30;;
68275;SDS011;55106;51.438;-0.098;2022-08-04T13:08:49;5.63;;;1.73;;
68275;SDS011;55106;51.438;-0.098;2022-08-04T13:11:14;7.07;;;1.70;;
68275;SDS011;55106;51.438;-0.098;2022-08-04T13:13:42;5.50;;;1.73;;
68275;SDS011;55106;51.438;-0.098;2022-08-04T13:16:09;5.70;;;1.50;;
68275;SDS011;55106;51.438;-0.098;2022-08-04T13:18:37;6.15;;;1.50;;
68275;SDS011;55106;51.438;-0.098;2022-08-04T13:21:17;8.00;;;1.70;;
68275;SDS011;55106;51.438;-0.098;2022-08-04T13:23:45;4.82;;;1.55;;
68275;SDS011;55106;51.438;-0.098;2022-08-04T13:26:15;5.88;;;1.67;;
68275;SDS011;55106;51.438;-0.098;2022-08-04T13:28:42;5.70;;;1.42;;
68275;SDS011;55106;51.438;-0.098;2022-08-04T13:31:12;4.72;;;1.30;;
68275;SDS011;55106;51.438;-0.098;2022-08-04T13:33:40;4.93;;;1.70;;
68275;SDS011;55106;51.438;-0.098;2022-08-04T13:36:07;5.88;;;1.60;;
68275;SDS011;55106;51.438;-0.098;2022-08-04T13:38:35;5.95;;;1.63;;
68275;SDS011;55106;51.438;-0.098;2022-08-04T13:41:04;5.93;;;1.55;;
68275;SDS011;55106;51.438;-0.098;2022-08-04T13:43:31;5.47;;;2.05;;
68275;SDS011;55106;51.438;-0.098;2022-08-04T13:46:04;6.00;;;1.43;;
68275;SDS011;55106;51.438;-0.098;2022-08-04T13:48:35;5.95;;;1.80;;
68275;SDS011;55106;51.438;-0.098;2022-08-04T13:51:05;4.47;;;1.40;;
68275;SDS011;55106;51.438;-0.098;2022-08-04T13:53:34;5.28;;;1.30;;
68275;SDS011;55106;51.438;-0.098;2022-08-04T13:56:01;4.68;;;1.48;;
68275;SDS011;55106;51.438;-0.098;2022-08-04T13:58:30;4.63;;;1.30;;
68275;SDS011;55106;51.438;-0.098;2022-08-04T14:06:17;5.73;;;1.47;;
68275;SDS011;55106;51.438;-0.098;2022-08-04T14:11:36;4.85;;;1.50;;
68275;SDS011;55106;51.438;-0.098;2022-08-04T14:14:25;4.53;;;1.30;;
68275;SDS011;55106;51.438;-0.098;2022-08-04T14:27:23;4.35;;;1.50;;
68275;SDS011;55106;51.438;-0.098;2022-08-04T14:29:48;4.97;;;1.40;;
68275;SDS011;55106;51.438;-0.098;2022-08-04T14:32:14;6.27;;;1.67;;
68275;SDS011;55106;51.438;-0.098;2022-08-04T14:34:40;5.00;;;1.60;;
68275;SDS011;55106;51.438;-0.098;2022-08-04T14:37:08;4.43;;;1.40;;
68275;SDS011;55106;51.438;-0.098;2022-08-04T14:39:42;5.60;;;1.83;;
68275;SDS011;55106;51.438;-0.098;2022-08-04T14:42:11;5.55;;;1.55;;
68275;SDS011;55106;51.438;-0.098;2022-08-04T14:44:56;4.88;;;1.30;;
68275;SDS011;55106;51.438;-0.098;2022-08-04T14:47:37;4.73;;;1.40;;
68275;SDS011;55106;51.438;-0.098;2022-08-04T14:50:04;4.47;;;1.60;;
68275;SDS011;55106;51.438;-0.098;2022-08-04T14:52:31;5.07;;;2.03;;
68275;SDS011;55106;51.438;-0.098;2022-08-04T14:54:57;4.90;;;1.47;;
68275;SDS011;55106;51.438;-0.098;2022-08-04T14:57:22;4.57;;;1.52;;
68275;SDS011;55106;51.438;-0.098;2022-08-04T14:59:48;4.73;;;1.63;;
68275;SDS011;55106;51.438;-0.098;2022-08-04T15:02:14;5.20;;;1.60;;
68275;SDS011;55106;51.438;-0.098;2022-08-04T15:04:41;4.83;;;1.60;;
68275;SDS011;55106;51.438;-0.098;2022-08-04T15:07:09;5.10;;;1.53;;
68275;SDS011;55106;51.438;-0.098;2022-08-04T15:09:35;6.18;;;1.40;;
68275;SDS011;55106;51.438;-0.098;2022-08-04T15:12:01;4.97;;;1.40;;
68275;SDS011;55106;51.438;-0.098;2022-08-04T15:14:28;5.65;;;1.52;;
68275;SDS011;55106;51.438;-0.098;2022-08-04T15:16:54;4.97;;;1.50;;
68275;SDS011;55106;51.438;-0.098;2022-08-04T15:19:20;5.43;;;1.33;;
68275;SDS011;55106;51.438;-0.098;2022-08-04T15:21:46;5.63;;;1.88;;
68275;SDS011;55106;51.438;-0.098;2022-08-04T15:24:12;6.97;;;1.40;;
68275;SDS011;55106;51.438;-0.098;2022-08-04T15:26:46;4.68;;;1.60;;
68275;SDS011;55106;51.438;-0.098;2022-08-04T15:29:16;7.60;;;1.80;;
68275;SDS011;55106;51.438;-0.098;2022-08-04T15:31:47;5.00;;;2.00;;
68275;SDS011;55106;51.438;-0.098;2022-08-04T15:34:13;5.75;;;1.70;;
68275;SDS011;55106;51.438;-0.098;2022-08-04T15:42:16;4.95;;;1.40;;
68275;SDS011;55106;51.438;-0.098;2022-08-04T15:47:27;5.57;;;1.40;;
68275;SDS011;55106;51.438;-0.098;2022-08-04T15:50:13;6.45;;;1.45;;
68275;SDS011;55106;51.438;-0.098;2022-08-04T15:55:34;6.30;;;1.40;;
68275;SDS011;55106;51.438;-0.098;2022-08-04T15:58:08;5.95;;;1.58;;
68275;SDS011;55106;51.438;-0.098;2022-08-04T16:01:12;6.32;;;1.65;;
68275;SDS011;55106;51.438;-0.098;2022-08-04T16:09:00;4.33;;;1.40;;
68275;SDS011;55106;51.438;-0.098;2022-08-04T16:19:08;5.70;;;1.75;;
68275;SDS011;55106;51.438;-0.098;2022-08-04T16:21:54;4.87;;;1.70;;
68275;SDS011;55106;51.438;-0.098;2022-08-04T16:24:34;6.40;;;1.63;;
68275;SDS011;55106;51.438;-0.098;2022-08-04T16:27:00;4.75;;;1.70;;
68275;SDS011;55106;51.438;-0.098;2022-08-04T16:29:37;6.20;;;1.60;;
68275;SDS011;55106;51.438;-0.098;2022-08-04T16:34:37;6.83;;;1.43;;
68275;SDS011;55106;51.438;-0.098;2022-08-04T16:37:13;7.88;;;1.60;;
68275;SDS011;55106;51.438;-0.098;2022-08-04T16:39:40;4.20;;;1.40;;
68275;SDS011;55106;51.438;-0.098;2022-08-04T16:44:58;4.85;;;1.40;;
68275;SDS011;55106;51.438;-0.098;2022-08-04T16:50:11;6.35;;;1.52;;
68275;SDS011;55106;51.438;-0.098;2022-08-04T16:52:44;5.90;;;1.60;;
68275;SDS011;55106;51.438;-0.098;2022-08-04T16:55:13;3.97;;;1.42;;
68275;SDS011;55106;51.438;-0.098;2022-08-04T16:57:40;4.68;;;1.42;;
68275;SDS011;55106;51.438;-0.098;2022-08-04T17:00:06;5.82;;;1.75;;
68275;SDS011;55106;51.438;-0.098;2022-08-04T17:02:32;4.87;;;1.30;;
68275;SDS011;55106;51.438;-0.098;2022-08-04T17:04:58;6.18;;;1.48;;
68275;SDS011;55106;51.438;-0.098;2022-08-04T17:07:23;5.77;;;1.60;;
68275;SDS011;55106;51.438;-0.098;2022-08-04T17:09:49;6.87;;;1.40;;
68275;SDS011;55106;51.438;-0.098;2022-08-04T17:12:15;5.15;;;1.35;;
68275;SDS011;55106;51.438;-0.098;2022-08-04T17:14:41;4.97;;;1.27;;
68275;SDS011;55106;51.438;-0.098;2022-08-04T17:17:06;4.53;;;1.37;;
68275;SDS011;55106;51.438;-0.098;2022-08-04T17:19:32;5.07;;;1.50;;
68275;SDS011;55106;51.438;-0.098;2022-08-04T17:22:01;7.63;;;1.60;;
68275;SDS011;55106;51.438;-0.098;2022-08-04T17:24:31;5.40;;;1.80;;
68275;SDS011;55106;51.438;-0.098;2022-08-04T17:26:58;4.97;;;1.30;;
68275;SDS011;55106;51.438;-0.098;2022-08-04T17:29:23;4.43;;;1.45;;
68275;SDS011;55106;51.438;-0.098;2022-08-04T17:31:53;6.00;;;1.30;;
68275;SDS011;55106;51.438;-0.098;2022-08-04T17:34:19;4.20;;;1.33;;
68275;SDS011;55106;51.438;-0.098;2022-08-04T17:36:45;4.93;;;1.50;;
68275;SDS011;55106;51.438;-0.098;2022-08-04T17:39:18;4.15;;;1.42;;
68275;SDS011;55106;51.438;-0.098;2022-08-04T17:41:47;4.67;;;1.30;;
68275;SDS011;55106;51.438;-0.098;2022-08-04T17:44:21;5.43;;;1.23;;
68275;SDS011;55106;51.438;-0.098;2022-08-04T17:47:06;4.55;;;1.38;;
68275;SDS011;55106;51.438;-0.098;2022-08-04T17:49:42;5.38;;;1.60;;
68275;SDS011;55106;51.438;-0.098;2022-08-04T17:52:07;5.17;;;1.30;;
68275;SDS011;55106;51.438;-0.098;2022-08-04T17:54:44;5.95;;;1.98;;
68275;SDS011;55106;51.438;-0.098;2022-08-04T17:57:18;5.60;;;1.70;;
68275;SDS011;55106;51.438;-0.098;2022-08-04T17:59:45;7.30;;;1.40;;
68275;SDS011;55106;51.438;-0.098;2022-08-04T18:02:12;4.80;;;1.20;;
68275;SDS011;55106;51.438;-0.098;2022-08-04T18:07:11;4.63;;;1.60;;
68275;SDS011;55106;51.438;-0.098;2022-08-04T18:12:20;5.13;;;1.50;;
68275;SDS011;55106;51.438;-0.098;2022-08-04T18:14:51;4.07;;;1.60;;
68275;SDS011;55106;51.438;-0.098;2022-08-04T18:19:57;5.88;;;1.77;;
68275;SDS011;55106;51.438;-0.098;2022-08-04T18:22:23;6.40;;;2.10;;
68275;SDS011;55106;51.438;-0.098;2022-08-04T18:24:49;5.75;;;1.60;;
68275;SDS011;55106;51.438;-0.098;2022-08-04T18:27:15;5.88;;;1.60;;
68275;SDS011;55106;51.438;-0.098;2022-08-04T18:29:41;6.90;;;1.70;;
68275;SDS011;55106;51.438;-0.098;2022-08-04T18:32:07;4.55;;;1.55;;
68275;SDS011;55106;51.438;-0.098;2022-08-04T18:34:33;5.10;;;1.43;;
68275;SDS011;55106;51.438;-0.098;2022-08-04T18:36:59;4.40;;;1.30;;
68275;SDS011;55106;51.438;-0.098;2022-08-04T18:39:25;4.78;;;1.42;;
68275;SDS011;55106;51.438;-0.098;2022-08-04T18:41:52;3.60;;;1.23;;
68275;SDS011;55106;51.438;-0.098;2022-08-04T18:44:18;4.70;;;1.80;;
68275;SDS011;55106;51.438;-0.098;2022-08-04T18:46:44;6.30;;;1.48;;
68275;SDS011;55106;51.438;-0.098;2022-08-04T18:49:10;4.87;;;1.50;;
68275;SDS011;55106;51.438;-0.098;2022-08-04T18:51:36;6.33;;;1.80;;
68275;SDS011;55106;51.438;-0.098;2022-08-04T18:54:02;4.47;;;1.60;;
68275;SDS011;55106;51.438;-0.098;2022-08-04T18:56:30;6.45;;;1.90;;
68275;SDS011;55106;51.438;-0.098;2022-08-04T18:58:57;4.85;;;1.60;;
68275;SDS011;55106;51.438;-0.098;2022-08-04T19:01:26;5.53;;;1.52;;
68275;SDS011;55106;51.438;-0.098;2022-08-04T19:03:52;4.93;;;1.53;;
68275;SDS011;55106;51.438;-0.098;2022-08-04T19:06:18;5.68;;;1.55;;
68275;SDS011;55106;51.438;-0.098;2022-08-04T19:08:44;5.67;;;1.53;;
68275;SDS011;55106;51.438;-0.098;2022-08-04T19:11:09;4.35;;;1.38;;
68275;SDS011;55106;51.438;-0.098;2022-08-04T19:13:35;4.73;;;1.20;;
68275;SDS011;55106;51.438;-0.098;2022-08-04T19:16:01;5.30;;;1.50;;
68275;SDS011;55106;51.438;-0.098;2022-08-04T19:18:27;4.60;;;1.48;;
68275;SDS011;55106;51.438;-0.098;2022-08-04T19:20:53;6.50;;;1.57;;
68275;SDS011;55106;51.438;-0.098;2022-08-04T19:23:19;5.70;;;1.52;;
68275;SDS011;55106;51.438;-0.098;2022-08-04T19:25:45;5.85;;;1.42;;
68275;SDS011;55106;51.438;-0.098;2022-08-04T19:28:11;5.20;;;1.43;;
68275;SDS011;55106;51.438;-0.098;2022-08-04T19:30:36;6.40;;;1.60;;
68275;SDS011;55106;51.438;-0.098;2022-08-04T19:33:02;5.07;;;1.40;;
68275;SDS011;55106;51.438;-0.098;2022-08-04T19:35:28;4.93;;;1.35;;
68275;SDS011;55106;51.438;-0.098;2022-08-04T19:37:53;4.60;;;1.20;;
68275;SDS011;55106;51.438;-0.098;2022-08-04T19:40:19;4.47;;;1.48;;
68275;SDS011;55106;51.438;-0.098;2022-08-04T19:42:45;4.67;;;1.70;;